Time;durP1;ratioP1;P1;durP2;ratioP2;P2;SDS_P1;SDS_P2;PMS_P1;PMS_P2;Temp;Humidity;BMP_temperature;BMP_pressure;BME280_temperature;BME280_humidity;BME280_pressure;Samples;Min_cycle;Max_cycle;Signal;HPM_P1;HPM_P2
2023/01/23 00:01:30;;;;;;;9.50;4.63;;;24.10;36.90;;;;;;5069372;28;20200;-80
2023/01/23 00:03:57;;;;;;;8.13;3.80;;;24.10;36.90;;;;;;5069662;28;20191;-76
2023/01/23 00:06:25;;;;;;;15.57;5.93;;;24.10;36.90;;;;;;5059730;28;20334;-81
2023/01/23 00:08:53;;;;;;;11.00;5.00;;;24.10;36.90;;;;;;5067518;28;20215;-78
2023/01/23 00:11:21;;;;;;;8.50;3.80;;;24.10;36.90;;;;;;5069520;28;20205;-85
2023/01/23 00:13:48;;;;;;;7.83;3.87;;;24.10;36.90;;;;;;5069534;28;20199;-83
2023/01/23 00:16:19;;;;;;;10.73;4.47;;;24.10;36.90;;;;;;5067787;28;20235;-80
2023/01/23 00:18:46;;;;;;;7.07;3.63;;;24.10;36.90;;;;;;5069413;28;20206;-85
2023/01/23 00:21:15;;;;;;;14.07;5.83;;;24.10;36.90;;;;;;5064292;28;20262;-84
2023/01/23 00:23:43;;;;;;;11.23;4.90;;;24.10;36.90;;;;;;5067275;28;20948;-73
2023/01/23 00:26:14;;;;;;;8.27;3.73;;;24.10;36.90;;;;;;5069073;28;20699;-64
2023/01/23 00:28:41;;;;;;;5.63;3.30;;;24.10;36.90;;;;;;5069343;28;20203;-66
2023/01/23 00:31:11;;;;;;;6.27;3.30;;;24.10;36.90;;;;;;5069141;28;20195;-68
2023/01/23 00:33:40;;;;;;;7.20;3.63;;;24.10;36.90;;;;;;5068922;28;20200;-68
2023/01/23 00:36:08;;;;;;;7.30;3.67;;;24.10;37.50;;;;;;5069434;28;20206;-64
2023/01/23 00:38:35;;;;;;;17.70;6.67;;;24.10;36.90;;;;;;5065309;28;20205;-65
2023/01/23 00:41:03;;;;;;;7.47;3.73;;;24.10;36.90;;;;;;5067098;28;20192;-65
2023/01/23 00:43:30;;;;;;;7.37;3.67;;;24.10;36.90;;;;;;5069245;28;20548;-66
2023/01/23 00:45:57;;;;;;;7.50;3.70;;;24.10;37.50;;;;;;5068920;28;20654;-65
2023/01/23 00:48:24;;;;;;;10.00;4.67;;;24.10;36.90;;;;;;5067730;28;20191;-70
2023/01/23 00:50:53;;;;;;;7.90;3.73;;;24.10;36.90;;;;;;5068186;28;20210;-79
2023/01/23 00:53:20;;;;;;;6.07;3.13;;;24.10;36.90;;;;;;5067784;28;20199;-65
2023/01/23 00:55:47;;;;;;;7.53;3.57;;;24.10;36.90;;;;;;5067965;28;20314;-65
2023/01/23 00:58:14;;;;;;;8.13;3.80;;;24.10;37.00;;;;;;5069232;28;20191;-65
2023/01/23 01:00:41;;;;;;;6.87;3.50;;;24.10;36.90;;;;;;5067663;28;20204;-68
2023/01/23 01:03:08;;;;;;;8.30;4.00;;;24.10;36.90;;;;;;5068504;28;20199;-68
2023/01/23 01:05:35;;;;;;;7.30;3.70;;;24.10;36.90;;;;;;5068357;28;20278;-66
2023/01/23 01:08:04;;;;;;;7.97;3.80;;;24.10;37.00;;;;;;5052899;28;20235;-66
2023/01/23 01:10:31;;;;;;;9.63;4.63;;;24.10;37.00;;;;;;5067670;28;20195;-65
2023/01/23 01:13:00;;;;;;;6.87;3.70;;;24.10;36.90;;;;;;5068549;28;20203;-65
2023/01/23 01:15:28;;;;;;;6.87;3.67;;;24.10;36.90;;;;;;5067143;28;20698;-67
2023/01/23 01:17:55;;;;;;;7.80;3.97;;;24.10;36.90;;;;;;5068782;28;20195;-67
2023/01/23 01:20:22;;;;;;;7.77;3.70;;;24.10;37.00;;;;;;5067496;28;20243;-71
2023/01/23 01:22:49;;;;;;;7.17;3.53;;;24.10;37.00;;;;;;5067461;28;20199;-65
2023/01/23 01:25:18;;;;;;;6.23;3.33;;;24.10;37.00;;;;;;5067721;28;20191;-65
2023/01/23 01:27:45;;;;;;;10.80;4.67;;;24.10;37.00;;;;;;5067472;28;20235;-65
2023/01/23 01:30:13;;;;;;;7.30;3.47;;;24.10;37.00;;;;;;5068369;28;20191;-65
2023/01/23 01:32:41;;;;;;;8.27;3.97;;;24.10;37.10;;;;;;5068388;28;20203;-66
2023/01/23 01:35:09;;;;;;;9.27;4.10;;;24.10;37.10;;;;;;5068225;28;20192;-68
2023/01/23 01:37:38;;;;;;;7.57;3.73;;;24.10;37.10;;;;;;5066749;28;20203;-68
2023/01/23 01:40:07;;;;;;;7.80;3.60;;;24.10;37.10;;;;;;5067525;28;20195;-70
2023/01/23 01:42:40;;;;;;;8.37;3.93;;;24.10;37.10;;;;;;5068171;28;20290;-75
2023/01/23 01:45:23;;;;;;;7.90;3.97;;;24.10;37.10;;;;;;5068170;28;20686;-65
2023/01/23 01:47:50;;;;;;;8.67;4.17;;;24.10;37.10;;;;;;5067411;28;20218;-71
2023/01/23 01:50:17;;;;;;;7.53;3.77;;;24.10;37.10;;;;;;5068054;28;20210;-66
2023/01/23 01:52:44;;;;;;;8.10;3.70;;;24.10;37.10;;;;;;5067984;28;20245;-67
2023/01/23 01:55:11;;;;;;;7.63;3.70;;;24.10;37.10;;;;;;5067345;28;20199;-73
2023/01/23 01:57:47;;;;;;;11.17;4.73;;;24.10;37.10;;;;;;5066873;28;20200;-75
2023/01/23 02:00:17;;;;;;;6.83;3.53;;;24.10;37.10;;;;;;5068267;28;20207;-67
2023/01/23 02:02:48;;;;;;;9.17;4.17;;;24.10;37.10;;;;;;5067101;28;20195;-78
2023/01/23 02:05:18;;;;;;;6.67;3.50;;;24.10;37.10;;;;;;5067398;28;20202;-75
2023/01/23 02:07:53;;;;;;;9.00;4.40;;;24.20;37.10;;;;;;5052180;28;20216;-70
2023/01/23 02:10:21;;;;;;;7.97;3.63;;;24.10;37.10;;;;;;5058413;28;20198;-77
2023/01/23 02:12:51;;;;;;;6.87;3.60;;;24.10;37.10;;;;;;5072067;28;20682;-80
2023/01/23 02:15:20;;;;;;;6.60;3.43;;;24.20;37.10;;;;;;5071967;28;20210;-85
2023/01/23 02:17:49;;;;;;;9.23;4.40;;;24.20;37.10;;;;;;5071653;28;20203;-65
2023/01/23 02:20:22;;;;;;;11.83;5.00;;;24.20;37.10;;;;;;5069705;28;20249;-66
2023/01/23 02:22:57;;;;;;;7.97;3.80;;;24.20;37.20;;;;;;5071080;28;20207;-65
2023/01/23 02:25:30;;;;;;;7.20;3.60;;;24.20;37.10;;;;;;5070873;28;20730;-75
2023/01/23 02:28:00;;;;;;;9.20;4.33;;;24.10;37.00;;;;;;5071442;28;20216;-65
2023/01/23 02:30:27;;;;;;;8.07;3.77;;;24.20;37.10;;;;;;5070936;28;20199;-65
2023/01/23 02:32:54;;;;;;;6.70;3.33;;;24.10;37.00;;;;;;5071181;28;20200;-69
2023/01/23 02:35:26;;;;;;;11.40;4.67;;;24.10;37.10;;;;;;5070669;28;20199;-75
2023/01/23 02:37:57;;;;;;;7.60;3.70;;;24.20;37.10;;;;;;5070506;28;20208;-66
2023/01/23 02:40:31;;;;;;;5.97;3.23;;;24.20;37.10;;;;;;5070781;28;20735;-76
2023/01/23 02:43:00;;;;;;;7.47;3.70;;;24.20;37.10;;;;;;5070485;28;20203;-73
2023/01/23 02:45:27;;;;;;;7.60;3.83;;;24.10;37.10;;;;;;5071359;28;20299;-70
2023/01/23 02:47:54;;;;;;;6.30;3.27;;;24.20;37.10;;;;;;5070715;28;20235;-78
2023/01/23 02:50:21;;;;;;;15.87;6.07;;;24.10;37.00;;;;;;5068681;28;20203;-70
2023/01/23 02:52:49;;;;;;;7.00;3.43;;;24.20;37.20;;;;;;5069430;28;20933;-65
2023/01/23 02:55:16;;;;;;;11.63;4.77;;;24.20;37.10;;;;;;5068904;28;20227;-66
2023/01/23 02:57:44;;;;;;;5.90;3.20;;;24.20;37.10;;;;;;5069113;28;20225;-70
2023/01/23 03:00:18;;;;;;;8.90;3.90;;;24.20;37.20;;;;;;5071127;28;20203;-68
2023/01/23 03:02:47;;;;;;;7.23;3.50;;;24.20;37.20;;;;;;5071320;28;20260;-65
2023/01/23 03:05:14;;;;;;;6.47;3.17;;;24.20;37.10;;;;;;5070336;28;20200;-65
2023/01/23 03:07:41;;;;;;;10.73;4.67;;;24.20;37.80;;;;;;5069030;28;20221;-67
2023/01/23 03:10:12;;;;;;;8.83;4.03;;;24.20;37.20;;;;;;5069797;28;20215;-66
2023/01/23 03:12:42;;;;;;;5.83;2.97;;;24.20;37.20;;;;;;5071004;28;20792;-65
2023/01/23 03:15:09;;;;;;;9.33;4.00;;;24.20;37.20;;;;;;5070885;28;20191;-66
2023/01/23 03:17:39;;;;;;;8.93;3.83;;;24.20;37.20;;;;;;5070009;28;20287;-66
2023/01/23 03:20:07;;;;;;;17.73;6.53;;;24.20;37.20;;;;;;5067068;28;20547;-65
2023/01/23 03:22:34;;;;;;;9.13;4.20;;;24.20;37.10;;;;;;5070348;28;20678;-64
2023/01/23 03:25:01;;;;;;;10.00;4.20;;;24.20;37.10;;;;;;5068972;28;20210;-66
2023/01/23 03:27:28;;;;;;;6.80;3.40;;;24.20;37.20;;;;;;5070479;28;20553;-65
2023/01/23 03:30:12;;;;;;;6.43;3.43;;;24.20;37.10;;;;;;5069873;28;20200;-68
2023/01/23 03:32:40;;;;;;;5.93;3.47;;;24.20;37.10;;;;;;5070044;28;20360;-80
2023/01/23 03:35:12;;;;;;;7.10;3.47;;;24.20;37.10;;;;;;5070089;28;20641;-76
2023/01/23 03:37:40;;;;;;;6.77;3.53;;;24.20;37.10;;;;;;5070188;28;20265;-80
2023/01/23 03:42:53;;;;;;;6.20;3.27;;;24.20;37.20;;;;;;5070166;28;20297;-81
2023/01/23 03:45:20;;;;;;;8.20;4.00;;;24.20;37.20;;;;;;5069395;28;20589;-81
2023/01/23 03:47:48;;;;;;;5.57;3.17;;;24.20;37.20;;;;;;5068314;28;20699;-78
2023/01/23 03:50:15;;;;;;;8.40;3.73;;;24.20;37.20;;;;;;5069097;28;20200;-75
2023/01/23 03:52:42;;;;;;;7.67;3.73;;;24.20;37.20;;;;;;5069948;28;20310;-86
2023/01/23 03:55:10;;;;;;;7.67;3.77;;;24.20;37.20;;;;;;5069476;28;20698;-83
2023/01/23 03:57:36;;;;;;;7.27;3.60;;;24.20;37.20;;;;;;5069729;28;20674;-87
2023/01/23 04:00:04;;;;;;;7.13;3.57;;;24.20;37.20;;;;;;5068729;28;20209;-83
2023/01/23 04:02:32;;;;;;;5.13;3.00;;;24.20;37.20;;;;;;5069011;28;20644;-85
2023/01/23 04:05:01;;;;;;;7.93;3.77;;;24.20;37.20;;;;;;5069709;28;20203;-82
2023/01/23 04:07:28;;;;;;;6.63;3.27;;;24.20;37.20;;;;;;5069738;28;20231;-85
2023/01/23 04:09:54;;;;;;;6.90;3.53;;;24.20;37.20;;;;;;5069247;28;20286;-86
2023/01/23 04:12:21;;;;;;;7.63;3.83;;;24.20;37.20;;;;;;5069066;28;20202;-66
2023/01/23 04:14:48;;;;;;;6.23;3.40;;;24.20;37.20;;;;;;5068819;28;20211;-66
2023/01/23 04:17:15;;;;;;;8.80;4.13;;;24.20;37.20;;;;;;5067714;28;20334;-65
2023/01/23 04:19:42;;;;;;;6.07;3.30;;;24.20;37.10;;;;;;5068677;28;20202;-65
2023/01/23 04:22:10;;;;;;;7.13;3.57;;;24.20;37.20;;;;;;5069153;28;20746;-65
2023/01/23 04:24:37;;;;;;;8.27;4.07;;;24.20;37.10;;;;;;5069075;28;20671;-66
2023/01/23 04:27:04;;;;;;;7.37;3.57;;;24.20;37.20;;;;;;5069204;28;20279;-65
2023/01/23 04:29:32;;;;;;;8.53;4.00;;;24.20;37.20;;;;;;5066964;28;20195;-67
2023/01/23 04:31:59;;;;;;;6.33;3.43;;;24.20;37.20;;;;;;5067930;28;20214;-65
2023/01/23 04:34:26;;;;;;;9.97;4.20;;;24.20;37.20;;;;;;5069072;28;20210;-68
2023/01/23 04:36:52;;;;;;;7.83;3.87;;;24.20;37.20;;;;;;5067768;28;20199;-71
2023/01/23 04:39:21;;;;;;;7.27;3.60;;;24.20;37.20;;;;;;5069551;28;20195;-69
2023/01/23 04:41:48;;;;;;;8.57;4.03;;;24.20;37.20;;;;;;5068536;28;20209;-66
2023/01/23 04:44:20;;;;;;;4.90;2.93;;;24.30;37.30;;;;;;5069536;28;20275;-65
2023/01/23 04:46:48;;;;;;;7.97;3.70;;;24.20;37.20;;;;;;5068385;28;20199;-65
2023/01/23 04:49:15;;;;;;;7.83;3.90;;;24.20;37.20;;;;;;5068849;28;20218;-65
2023/01/23 04:51:43;;;;;;;7.97;3.83;;;24.20;37.20;;;;;;5066613;28;20203;-72
2023/01/23 04:54:10;;;;;;;7.03;3.60;;;24.20;37.20;;;;;;5068661;28;20214;-68
2023/01/23 04:56:38;;;;;;;8.37;4.00;;;24.20;37.10;;;;;;5068620;28;20191;-74
2023/01/23 04:59:06;;;;;;;6.67;3.43;;;24.20;37.10;;;;;;5068703;28;20690;-66
2023/01/23 05:01:32;;;;;;;8.10;3.80;;;24.20;37.10;;;;;;5063241;28;20207;-66
2023/01/23 05:03:59;;;;;;;8.30;4.20;;;24.20;37.20;;;;;;5068891;28;20187;-72
2023/01/23 05:06:26;;;;;;;8.13;3.80;;;24.20;37.20;;;;;;5067871;28;20209;-66
2023/01/23 05:08:53;;;;;;;8.20;3.17;;;24.10;37.20;;;;;;5068543;28;20231;-66
2023/01/23 05:11:20;;;;;;;7.50;3.80;;;24.20;37.20;;;;;;5067773;28;20654;-72
2023/01/23 05:13:49;;;;;;;6.53;3.43;;;24.20;37.20;;;;;;5068707;28;20188;-72
2023/01/23 05:16:16;;;;;;;7.10;3.73;;;24.20;37.20;;;;;;5067286;28;20679;-65
2023/01/23 05:18:43;;;;;;;7.87;3.80;;;24.20;37.90;;;;;;5068179;28;20195;-69
2023/01/23 05:21:10;;;;;;;7.07;3.60;;;24.20;37.20;;;;;;5067484;28;20249;-68
2023/01/23 05:23:37;;;;;;;7.37;3.70;;;24.20;37.30;;;;;;5068530;28;20290;-69
2023/01/23 05:26:04;;;;;;;6.63;3.40;;;24.20;37.30;;;;;;5068646;28;20218;-65
2023/01/23 05:28:30;;;;;;;6.60;3.43;;;24.10;37.20;;;;;;5067567;28;20592;-65
2023/01/23 05:30:59;;;;;;;6.83;3.47;;;24.20;37.30;;;;;;5067284;28;20214;-65
2023/01/23 05:33:26;;;;;;;7.40;3.33;;;24.20;37.30;;;;;;5066880;28;20282;-68
2023/01/23 05:35:52;;;;;;;6.80;3.57;;;24.20;37.30;;;;;;5066630;28;20192;-66
2023/01/23 05:38:19;;;;;;;7.60;3.90;;;24.20;37.30;;;;;;5068327;28;20588;-64
2023/01/23 05:40:46;;;;;;;6.93;3.50;;;24.20;37.30;;;;;;5070747;28;20286;-65
2023/01/23 05:43:15;;;;;;;7.73;3.57;;;24.20;37.30;;;;;;5072184;28;20679;-70
2023/01/23 05:45:42;;;;;;;13.60;5.43;;;24.20;37.30;;;;;;5071488;28;20213;-66
2023/01/23 05:48:10;;;;;;;6.87;3.60;;;24.20;37.30;;;;;;5071484;28;20227;-69
2023/01/23 05:50:37;;;;;;;6.40;3.47;;;24.20;37.30;;;;;;5071775;28;20951;-69
2023/01/23 05:53:04;;;;;;;6.83;3.37;;;24.20;37.30;;;;;;5071882;28;20592;-66
2023/01/23 05:55:31;;;;;;;8.17;3.77;;;24.20;37.30;;;;;;5072123;28;20209;-74
2023/01/23 05:57:58;;;;;;;7.53;3.70;;;24.20;37.30;;;;;;5071879;28;20205;-88
2023/01/23 06:00:25;;;;;;;11.23;4.77;;;24.20;37.30;;;;;;5071616;28;20564;-85
2023/01/23 06:02:52;;;;;;;8.87;4.20;;;24.20;37.30;;;;;;5061918;28;20213;-69
2023/01/23 06:05:22;;;;;;;8.47;3.80;;;24.20;37.30;;;;;;5071946;28;20199;-77
2023/01/23 06:07:49;;;;;;;11.40;4.87;;;24.20;37.30;;;;;;5070492;28;20275;-69
2023/01/23 06:10:16;;;;;;;9.23;4.27;;;24.20;37.30;;;;;;5070617;28;20206;-66
2023/01/23 06:12:43;;;;;;;8.80;4.00;;;24.20;37.30;;;;;;5071843;28;20191;-66
2023/01/23 06:15:11;;;;;;;8.03;3.80;;;24.20;37.30;;;;;;5070590;28;20224;-66
2023/01/23 06:17:38;;;;;;;9.10;4.20;;;24.20;37.30;;;;;;5061922;28;20211;-66
2023/01/23 06:20:05;;;;;;;6.23;3.40;;;24.20;37.30;;;;;;5071018;28;20222;-66
2023/01/23 06:22:33;;;;;;;7.53;3.73;;;24.20;37.40;;;;;;5071715;28;20210;-66
2023/01/23 06:25:00;;;;;;;7.27;3.60;;;24.30;37.50;;;;;;5071469;28;20192;-81
2023/01/23 06:27:27;;;;;;;7.87;3.97;;;24.20;37.40;;;;;;5070803;28;20222;-74
2023/01/23 06:29:54;;;;;;;6.97;3.50;;;24.20;37.40;;;;;;5071133;28;20661;-66
2023/01/23 06:32:22;;;;;;;7.07;3.40;;;24.20;37.40;;;;;;5070918;28;20199;-67
2023/01/23 06:34:49;;;;;;;8.03;4.03;;;24.20;37.40;;;;;;5067629;28;20195;-72
2023/01/23 06:37:16;;;;;;;12.67;5.20;;;24.20;37.40;;;;;;5068940;28;20201;-67
2023/01/23 06:39:44;;;;;;;6.23;3.27;;;24.20;37.40;;;;;;5070225;28;20214;-68
2023/01/23 06:42:11;;;;;;;10.10;4.53;;;24.30;37.50;;;;;;5071521;28;20191;-71
2023/01/23 06:44:38;;;;;;;9.03;3.93;;;24.20;37.50;;;;;;5070872;28;20576;-66
2023/01/23 06:47:05;;;;;;;7.23;3.63;;;24.20;37.50;;;;;;5071540;28;20561;-67
2023/01/23 06:49:32;;;;;;;7.07;3.60;;;24.20;37.50;;;;;;5062958;28;21500;-66
2023/01/23 06:51:59;;;;;;;8.33;3.83;;;24.30;37.50;;;;;;5066252;28;20213;-72
2023/01/23 06:54:26;;;;;;;8.93;3.90;;;24.20;37.50;;;;;;5071264;28;20188;-75
2023/01/23 06:56:54;;;;;;;7.10;3.47;;;24.30;37.50;;;;;;5070788;28;20554;-67
2023/01/23 06:59:21;;;;;;;8.67;4.13;;;24.30;37.50;;;;;;5065377;28;20204;-69
2023/01/23 07:01:48;;;;;;;10.80;4.57;;;24.30;37.60;;;;;;5051141;28;20210;-69
2023/01/23 07:04:15;;;;;;;9.40;4.43;;;24.30;37.60;;;;;;5050929;28;20275;-66
2023/01/23 07:06:42;;;;;;;6.90;3.50;;;24.20;37.50;;;;;;5050995;28;20369;-71
2023/01/23 07:09:09;;;;;;;6.07;3.20;;;24.20;37.50;;;;;;5055297;28;20223;-69
2023/01/23 07:11:36;;;;;;;7.73;3.70;;;24.20;37.60;;;;;;5070366;28;20187;-67
2023/01/23 07:14:05;;;;;;;11.40;4.70;;;24.20;37.50;;;;;;5068932;28;20195;-66
2023/01/23 07:16:33;;;;;;;7.30;3.50;;;24.20;37.50;;;;;;5070174;28;20707;-66
2023/01/23 07:19:01;;;;;;;9.27;4.07;;;24.20;37.60;;;;;;5059693;28;20218;-75
2023/01/23 07:21:28;;;;;;;7.90;3.77;;;24.20;37.50;;;;;;5052081;28;20214;-78
2023/01/23 07:23:55;;;;;;;8.50;3.90;;;24.30;37.60;;;;;;5070394;28;20206;-71
2023/01/23 07:26:22;;;;;;;8.37;4.00;;;24.20;37.50;;;;;;5070017;28;20218;-68
2023/01/23 07:28:48;;;;;;;10.90;4.83;;;24.20;37.60;;;;;;5069803;28;20220;-73
2023/01/23 07:31:17;;;;;;;11.33;4.67;;;24.20;37.60;;;;;;5069878;28;20203;-67
2023/01/23 07:33:44;;;;;;;6.73;3.70;;;24.20;37.60;;;;;;5070279;28;20188;-67
2023/01/23 07:36:12;;;;;;;8.20;4.17;;;24.20;38.20;;;;;;5057824;28;20207;-66
2023/01/23 07:38:40;;;;;;;8.90;3.83;;;24.20;37.60;;;;;;5050463;28;20267;-66
2023/01/23 07:41:07;;;;;;;7.57;3.87;;;24.20;37.60;;;;;;5059560;28;20199;-67
2023/01/23 07:43:34;;;;;;;11.00;4.93;;;24.20;37.50;;;;;;5069336;28;20214;-72
2023/01/23 07:46:02;;;;;;;11.83;4.97;;;24.20;37.60;;;;;;5068014;28;20199;-77
2023/01/23 07:48:30;;;;;;;9.20;4.50;;;24.20;37.60;;;;;;5060486;28;20310;-71
2023/01/23 07:51:01;;;;;;;7.43;3.70;;;24.20;37.60;;;;;;5069317;28;20208;-66
2023/01/23 07:53:28;;;;;;;6.83;3.57;;;24.20;37.60;;;;;;5069141;28;20287;-68
2023/01/23 07:55:54;;;;;;;8.13;3.73;;;24.20;37.60;;;;;;5070097;28;20207;-67
2023/01/23 07:58:21;;;;;;;9.00;4.10;;;24.20;37.60;;;;;;5067819;28;20192;-66
2023/01/23 08:00:48;;;;;;;6.97;3.30;;;24.20;37.60;;;;;;5066087;28;20203;-69
2023/01/23 08:03:15;;;;;;;8.50;3.87;;;24.20;37.60;;;;;;5068638;28;20192;-68
2023/01/23 08:05:48;;;;;;;6.73;3.43;;;24.20;37.60;;;;;;5067366;28;20235;-70
2023/01/23 08:08:15;;;;;;;7.80;3.80;;;24.10;37.50;;;;;;5068323;28;20210;-66
2023/01/23 08:10:42;;;;;;;8.90;4.07;;;24.20;37.60;;;;;;5053503;28;20208;-66
2023/01/23 08:13:10;;;;;;;11.43;4.80;;;24.20;37.60;;;;;;5049904;28;20204;-66
2023/01/23 08:15:37;;;;;;;12.17;5.10;;;24.10;37.50;;;;;;5065687;28;20224;-65
2023/01/23 08:18:04;;;;;;;8.23;3.90;;;24.10;37.50;;;;;;5069451;28;20204;-66
2023/01/23 08:20:31;;;;;;;10.50;4.83;;;24.10;37.50;;;;;;5069020;28;20215;-65
2023/01/23 08:23:00;;;;;;;7.23;3.67;;;24.10;37.50;;;;;;5063028;28;20219;-66
2023/01/23 08:25:28;;;;;;;7.40;3.87;;;24.10;37.50;;;;;;5049845;28;20207;-67
2023/01/23 08:27:54;;;;;;;7.50;3.70;;;24.10;37.50;;;;;;5063987;28;20294;-66
2023/01/23 08:30:21;;;;;;;10.23;4.23;;;24.10;37.50;;;;;;5068632;28;20580;-66
2023/01/23 08:32:48;;;;;;;7.50;3.53;;;24.10;37.50;;;;;;5069423;28;20199;-70
2023/01/23 08:35:16;;;;;;;8.53;3.80;;;24.10;37.50;;;;;;5067976;28;20242;-66
2023/01/23 08:37:43;;;;;;;8.77;4.33;;;24.10;37.50;;;;;;5069435;28;20195;-70
2023/01/23 08:40:12;;;;;;;6.13;3.40;;;24.10;37.50;;;;;;5069402;28;20271;-66
2023/01/23 08:42:39;;;;;;;7.10;3.63;;;24.10;37.50;;;;;;5069101;28;20200;-69
2023/01/23 08:45:07;;;;;;;6.90;3.90;;;24.10;37.50;;;;;;5068987;28;20195;-65
2023/01/23 08:47:35;;;;;;;8.33;4.17;;;24.10;38.20;;;;;;5068818;28;20192;-65
2023/01/23 08:50:02;;;;;;;7.03;3.87;;;24.10;37.50;;;;;;5067975;28;20280;-66
2023/01/23 08:52:29;;;;;;;7.40;3.57;;;24.10;37.50;;;;;;5066131;28;20214;-66
2023/01/23 08:54:56;;;;;;;7.90;4.13;;;24.10;37.50;;;;;;5049134;28;20239;-74
2023/01/23 08:57:25;;;;;;;7.93;4.13;;;24.10;37.50;;;;;;5049319;28;20286;-67
2023/01/23 08:59:52;;;;;;;9.10;4.07;;;24.10;37.50;;;;;;5049431;28;20580;-69
2023/01/23 09:02:20;;;;;;;6.03;3.43;;;24.10;37.50;;;;;;5048986;28;20218;-66
2023/01/23 09:04:47;;;;;;;11.13;4.73;;;24.10;37.50;;;;;;5064371;28;20882;-66
2023/01/23 09:07:14;;;;;;;9.63;4.43;;;24.10;37.50;;;;;;5068617;28;20290;-77
2023/01/23 09:09:41;;;;;;;8.50;4.17;;;24.10;37.50;;;;;;5059897;28;20234;-73
2023/01/23 09:12:08;;;;;;;6.90;3.67;;;24.10;37.50;;;;;;5055517;28;20218;-68
2023/01/23 09:14:36;;;;;;;7.10;3.83;;;24.10;37.50;;;;;;5066422;28;20199;-76
2023/01/23 09:17:03;;;;;;;12.20;5.67;;;24.00;37.50;;;;;;5067446;28;20204;-67
2023/01/23 09:19:30;;;;;;;6.83;3.67;;;24.10;37.50;;;;;;5066692;28;20286;-66
2023/01/23 09:21:57;;;;;;;6.33;3.53;;;24.10;37.50;;;;;;5068488;28;20249;-69
2023/01/23 09:24:24;;;;;;;7.03;3.90;;;24.10;37.50;;;;;;5068592;28;20286;-78
2023/01/23 09:26:51;;;;;;;10.20;4.60;;;24.10;37.50;;;;;;5068604;28;20264;-70
2023/01/23 09:29:18;;;;;;;8.00;4.03;;;24.10;37.60;;;;;;5068569;28;20242;-66
2023/01/23 09:31:46;;;;;;;8.67;3.97;;;24.10;37.60;;;;;;5068808;28;20255;-70
2023/01/23 09:34:13;;;;;;;10.33;4.57;;;24.10;37.60;;;;;;5066581;28;20205;-69
2023/01/23 09:36:40;;;;;;;7.07;3.70;;;24.10;37.60;;;;;;5067187;28;20615;-66
2023/01/23 09:39:07;;;;;;;7.70;3.80;;;24.10;37.60;;;;;;5068240;28;20203;-68
2023/01/23 09:41:34;;;;;;;7.10;3.97;;;24.10;37.60;;;;;;5068079;28;20199;-67
2023/01/23 09:44:06;;;;;;;9.00;4.23;;;24.10;37.70;;;;;;5068415;28;20272;-66
2023/01/23 09:46:37;;;;;;;9.43;4.07;;;24.10;37.70;;;;;;5065916;28;20219;-73
2023/01/23 09:49:13;;;;;;;8.30;3.93;;;24.10;37.50;;;;;;5061212;28;20227;-67
2023/01/23 09:51:51;;;;;;;7.23;3.80;;;24.10;37.60;;;;;;5066662;28;20291;-71
2023/01/23 09:54:29;;;;;;;6.83;3.70;;;24.10;38.30;;;;;;5064361;28;20199;-65
2023/01/23 09:56:59;;;;;;;8.13;4.00;;;24.10;37.60;;;;;;5058189;28;20210;-65
2023/01/23 09:59:33;;;;;;;20.93;7.80;;;24.10;37.50;;;;;;5056616;28;20563;-66
2023/01/23 10:02:00;;;;;;;20.60;7.50;;;24.00;37.40;;;;;;5059844;28;20291;-65
2023/01/23 10:04:28;;;;;;;21.73;7.07;;;24.00;37.50;;;;;;5063732;28;20211;-64
2023/01/23 10:07:08;;;;;;;8.83;4.07;;;24.00;37.50;;;;;;5065890;28;20203;-65
2023/01/23 10:09:50;;;;;;;7.90;3.97;;;24.00;37.50;;;;;;5063676;28;20219;-64
2023/01/23 10:12:29;;;;;;;12.07;5.13;;;24.00;37.60;;;;;;5067166;28;20196;-64
2023/01/23 10:15:26;;;;;;;5.87;3.13;;;24.00;37.70;;;;;;5065620;28;20223;-68
2023/01/23 10:18:04;;;;;;;10.40;4.57;;;24.00;37.70;;;;;;5051042;28;20253;-65
2023/01/23 10:20:47;;;;;;;7.30;3.90;;;24.00;37.70;;;;;;5064203;28;20207;-65
2023/01/23 10:23:36;;;;;;;9.23;4.40;;;24.00;37.70;;;;;;5060804;28;20206;-71
2023/01/23 10:26:04;;;;;;;15.27;5.70;;;24.10;37.80;;;;;;5060572;28;20664;-72
2023/01/23 10:28:37;;;;;;;7.43;4.07;;;24.10;37.80;;;;;;5067489;28;20199;-74
2023/01/23 10:31:10;;;;;;;7.60;4.00;;;24.10;37.80;;;;;;5069483;28;20222;-77
2023/01/23 10:33:42;;;;;;;9.63;4.43;;;24.10;38.40;;;;;;5063640;28;20204;-68
2023/01/23 10:36:20;;;;;;;17.57;6.87;;;24.10;37.70;;;;;;5067276;28;20203;-69
2023/01/23 10:38:55;;;;;;;12.53;5.00;;;24.10;37.80;;;;;;5068892;28;21047;-67
2023/01/23 10:41:22;;;;;;;10.10;4.23;;;24.00;37.70;;;;;;5066607;28;20297;-65
2023/01/23 10:43:50;;;;;;;8.03;3.80;;;24.10;37.80;;;;;;5069188;28;20816;-72
2023/01/23 10:46:19;;;;;;;10.97;4.67;;;24.10;37.80;;;;;;5067796;28;20207;-65
2023/01/23 10:48:47;;;;;;;10.53;4.20;;;24.10;37.70;;;;;;5064577;28;20627;-65
2023/01/23 10:51:34;;;;;;;9.73;4.50;;;24.10;37.80;;;;;;5057050;28;20227;-70
2023/01/23 10:54:06;;;;;;;13.73;5.80;;;24.10;37.80;;;;;;5068528;28;20223;-66
2023/01/23 10:56:36;;;;;;;11.73;5.10;;;24.10;37.80;;;;;;5055674;28;20203;-67
2023/01/23 10:59:05;;;;;;;13.57;5.40;;;24.10;37.80;;;;;;5064585;28;20200;-68
2023/01/23 11:01:33;;;;;;;15.60;4.47;;;24.10;37.80;;;;;;5053544;28;20192;-64
2023/01/23 11:04:11;;;;;;;10.20;4.47;;;24.10;37.90;;;;;;5053729;28;20196;-64
2023/01/23 11:06:39;;;;;;;13.93;5.43;;;24.10;37.90;;;;;;5064784;28;20210;-65
2023/01/23 11:09:19;;;;;;;9.93;4.53;;;24.10;37.80;;;;;;5062591;28;20606;-65
2023/01/23 11:12:00;;;;;;;8.80;4.43;;;24.10;37.90;;;;;;5053105;28;20651;-65
2023/01/23 11:14:27;;;;;;;12.73;5.00;;;24.10;37.90;;;;;;5056158;28;20211;-65
2023/01/23 11:17:13;;;;;;;8.47;4.03;;;24.20;37.90;;;;;;5067605;28;20218;-68
2023/01/23 11:19:42;;;;;;;12.23;5.07;;;24.10;37.90;;;;;;5066844;28;20294;-65
2023/01/23 11:22:29;;;;;;;9.80;4.57;;;24.20;37.90;;;;;;5068191;28;20203;-69
2023/01/23 11:24:56;;;;;;;9.57;4.73;;;24.20;37.90;;;;;;5069937;28;20217;-65
2023/01/23 11:27:26;;;;;;;10.27;4.33;;;24.20;37.90;;;;;;5069979;28;20196;-64
2023/01/23 11:30:33;;;;;;;18.77;7.13;;;24.20;37.90;;;;;;5067865;28;20268;-65
2023/01/23 11:33:08;;;;;;;11.03;5.00;;;24.20;37.90;;;;;;5053571;28;20282;-66
2023/01/23 11:35:58;;;;;;;14.67;6.03;;;24.20;37.90;;;;;;5068473;28;20309;-65
2023/01/23 11:38:31;;;;;;;12.10;5.50;;;24.30;38.00;;;;;;5066413;28;20231;-67
2023/01/23 11:40:58;;;;;;;197.13;122.90;;;24.30;38.10;;;;;;5064459;28;20191;-65
2023/01/23 11:43:25;;;;;;;185.67;120.83;;;24.30;38.40;;;;;;5056795;28;20630;-65
2023/01/23 11:46:17;;;;;;;119.60;76.03;;;24.30;38.50;;;;;;5058578;28;20199;-63
2023/01/23 11:49:00;;;;;;;92.73;57.90;;;24.40;38.60;;;;;;5067954;28;20214;-65
2023/01/23 11:51:34;;;;;;;74.23;48.23;;;24.40;38.60;;;;;;5049200;28;20263;-66
2023/01/23 11:54:18;;;;;;;60.67;38.67;;;24.50;38.60;;;;;;5049056;28;20673;-69
2023/01/23 11:57:02;;;;;;;50.47;30.47;;;24.50;38.60;;;;;;5049281;28;20212;-66
2023/01/23 11:59:45;;;;;;;40.67;25.53;;;24.60;38.70;;;;;;5063684;28;20200;-62
2023/01/23 12:02:49;;;;;;;39.57;22.07;;;24.60;38.60;;;;;;5062814;28;20202;-62
2023/01/23 12:05:31;;;;;;;32.93;19.87;;;24.70;38.60;;;;;;5053869;28;20290;-65
2023/01/23 12:08:11;;;;;;;26.97;16.10;;;24.80;39.20;;;;;;5067807;28;20211;-63
2023/01/23 12:10:53;;;;;;;29.27;16.60;;;24.80;38.50;;;;;;5068388;28;20245;-68
2023/01/23 12:13:41;;;;;;;24.80;14.40;;;24.90;38.40;;;;;;5069240;28;20207;-74
2023/01/23 12:16:18;;;;;;;21.90;13.47;;;24.90;38.30;;;;;;5066799;28;20310;-71
2023/01/23 12:18:54;;;;;;;24.10;12.87;;;25.00;38.30;;;;;;5067263;28;20242;-68
2023/01/23 12:21:32;;;;;;;28.63;14.40;;;25.10;38.30;;;;;;5060876;28;20219;-63
2023/01/23 12:24:14;;;;;;;23.10;11.97;;;25.10;38.10;;;;;;5065871;28;21313;-66
2023/01/23 12:26:56;;;;;;;17.53;10.83;;;25.10;38.00;;;;;;5067967;28;20209;-72
2023/01/23 12:29:49;;;;;;;20.03;11.23;;;25.20;38.00;;;;;;5066217;28;20209;-70
2023/01/23 12:32:34;;;;;;;30.57;12.93;;;25.20;38.00;;;;;;5067186;28;20946;-72
2023/01/23 12:35:17;;;;;;;24.07;12.37;;;25.30;37.90;;;;;;5067360;28;20282;-80
2023/01/23 12:37:59;;;;;;;24.13;11.87;;;25.20;37.80;;;;;;5068496;28;20290;-67
2023/01/23 12:40:32;;;;;;;22.00;11.70;;;25.30;37.90;;;;;;5068317;28;20691;-62
2023/01/23 12:43:09;;;;;;;20.40;10.83;;;25.20;37.80;;;;;;5066376;28;20226;-67
2023/01/23 12:45:40;;;;;;;21.50;11.80;;;25.20;37.80;;;;;;5057292;28;20279;-70
2023/01/23 12:48:11;;;;;;;19.27;10.53;;;25.20;37.80;;;;;;5053686;28;20706;-70
2023/01/23 12:50:44;;;;;;;20.83;10.70;;;25.20;37.80;;;;;;5067180;28;20515;-64
2023/01/23 12:53:13;;;;;;;23.57;11.40;;;25.20;37.90;;;;;;5065509;28;20207;-66
2023/01/23 12:55:54;;;;;;;19.50;10.20;;;25.10;37.90;;;;;;5067885;28;20677;-63
2023/01/23 12:58:25;;;;;;;17.30;9.70;;;25.10;37.90;;;;;;5062527;28;20298;-63
2023/01/23 13:01:06;;;;;;;23.40;11.03;;;25.10;37.90;;;;;;5053956;28;20651;-64